CheckWX is a tool to help pilots better visualize weather data.  It is not intended as a substitute for an official pre-flight weather briefing.

05:13:50 UTC

EDDS TAF
Stuttgart Airport
Stuttgart, Germany
TAF EDDS 232300Z 2400/2424 07005KT CAVOK

Feb-24@
00:00 UTC

Feb-24 @ 00:00 UTC

Feb-25@
00:00 UTC

Feb-25 @ 00:00 UTC

TAF EDDS 232300Z 2400/2424 07005KT CAVOK
Wind
  • 070° at 5 KTS
Conditions
No significant weather
Cloud Levels
  • No significant clouds